sensor_id;sensor_type;location;lat;lon;timestamp;pressure;altitude;pressure_sealevel;temperature;humidity
14594;BME280;7383;52.354;9.756;2023-10-13T00:01:53;-12746.75;;;16.81;100.00
14594;BME280;7383;52.354;9.756;2023-10-13T00:04:20;-12746.84;;;16.82;100.00
14594;BME280;7383;52.354;9.756;2023-10-13T00:06:50;-12747.00;;;16.83;100.00
14594;BME280;7383;52.354;9.756;2023-10-13T00:09:17;-12747.00;;;16.83;100.00
14594;BME280;7383;52.354;9.756;2023-10-13T00:11:49;-12747.09;;;16.83;100.00
14594;BME280;7383;52.354;9.756;2023-10-13T00:14:18;-12747.38;;;16.85;100.00
14594;BME280;7383;52.354;9.756;2023-10-13T00:16:46;-12747.19;;;16.84;100.00
14594;BME280;7383;52.354;9.756;2023-10-13T00:19:27;-12747.28;;;16.84;100.00
14594;BME280;7383;52.354;9.756;2023-10-13T00:21:55;-12747.53;;;16.86;100.00
14594;BME280;7383;52.354;9.756;2023-10-13T00:24:34;-12747.78;;;16.87;100.00
14594;BME280;7383;52.354;9.756;2023-10-13T00:27:08;-12747.88;;;16.88;100.00
14594;BME280;7383;52.354;9.756;2023-10-13T00:29:38;-12748.06;;;16.89;100.00
14594;BME280;7383;52.354;9.756;2023-10-13T00:32:05;-12748.41;;;16.91;100.00
14594;BME280;7383;52.354;9.756;2023-10-13T00:34:37;-12748.56;;;16.92;100.00
14594;BME280;7383;52.354;9.756;2023-10-13T00:37:06;-12749.09;;;16.95;100.00
14594;BME280;7383;52.354;9.756;2023-10-13T00:39:43;-12749.44;;;16.97;100.00
14594;BME280;7383;52.354;9.756;2023-10-13T00:42:10;-12749.59;;;16.98;100.00
14594;BME280;7383;52.354;9.756;2023-10-13T00:44:43;-12750.13;;;17.01;100.00
14594;BME280;7383;52.354;9.756;2023-10-13T00:47:14;-12750.72;;;17.04;100.00
14594;BME280;7383;52.354;9.756;2023-10-13T00:49:47;-12750.81;;;17.05;100.00
14594;BME280;7383;52.354;9.756;2023-10-13T00:52:16;-12751.16;;;17.07;100.00
14594;BME280;7383;52.354;9.756;2023-10-13T00:54:44;-12751.16;;;17.07;100.00
14594;BME280;7383;52.354;9.756;2023-10-13T00:57:12;-12751.69;;;17.10;100.00
14594;BME280;7383;52.354;9.756;2023-10-13T00:59:51;-12751.78;;;17.10;100.00
14594;BME280;7383;52.354;9.756;2023-10-13T01:02:18;-12751.94;;;17.11;100.00
14594;BME280;7383;52.354;9.756;2023-10-13T01:05:04;-12752.53;;;17.15;100.00
14594;BME280;7383;52.354;9.756;2023-10-13T01:07:35;-12752.28;;;17.13;100.00
14594;BME280;7383;52.354;9.756;2023-10-13T01:10:02;-12752.47;;;17.14;100.00
14594;BME280;7383;52.354;9.756;2023-10-13T01:12:29;-12752.81;;;17.16;100.00
14594;BME280;7383;52.354;9.756;2023-10-13T01:14:57;-12753.41;;;17.20;100.00
14594;BME280;7383;52.354;9.756;2023-10-13T01:17:24;-12753.84;;;17.22;100.00
14594;BME280;7383;52.354;9.756;2023-10-13T01:19:57;-12754.63;;;17.27;100.00
14594;BME280;7383;52.354;9.756;2023-10-13T01:22:24;-12754.72;;;17.28;100.00
14594;BME280;7383;52.354;9.756;2023-10-13T01:24:51;-12754.88;;;17.29;100.00
14594;BME280;7383;52.354;9.756;2023-10-13T01:27:29;-12755.22;;;17.31;100.00
14594;BME280;7383;52.354;9.756;2023-10-13T01:29:55;-12755.66;;;17.33;100.00
14594;BME280;7383;52.354;9.756;2023-10-13T01:32:24;-12755.56;;;17.33;100.00
14594;BME280;7383;52.354;9.756;2023-10-13T01:34:49;-12755.75;;;17.34;100.00
14594;BME280;7383;52.354;9.756;2023-10-13T01:37:20;-12755.75;;;17.34;100.00
14594;BME280;7383;52.354;9.756;2023-10-13T01:39:47;-12755.91;;;17.35;100.00
14594;BME280;7383;52.354;9.756;2023-10-13T01:42:16;-12755.75;;;17.34;100.00
14594;BME280;7383;52.354;9.756;2023-10-13T01:44:45;-12755.84;;;17.34;100.00
14594;BME280;7383;52.354;9.756;2023-10-13T01:47:30;-12755.66;;;17.33;100.00
14594;BME280;7383;52.354;9.756;2023-10-13T01:49:56;-12755.84;;;17.34;100.00
14594;BME280;7383;52.354;9.756;2023-10-13T01:52:23;-12755.66;;;17.33;100.00
14594;BME280;7383;52.354;9.756;2023-10-13T01:54:52;-12755.84;;;17.34;100.00
14594;BME280;7383;52.354;9.756;2023-10-13T01:57:21;-12756.00;;;17.35;100.00
14594;BME280;7383;52.354;9.756;2023-10-13T01:59:49;-12756.09;;;17.36;100.00
14594;BME280;7383;52.354;9.756;2023-10-13T02:02:16;-12756.44;;;17.38;100.00
14594;BME280;7383;52.354;9.756;2023-10-13T02:04:45;-12756.44;;;17.38;100.00
14594;BME280;7383;52.354;9.756;2023-10-13T02:07:23;-12756.19;;;17.36;100.00
14594;BME280;7383;52.354;9.756;2023-10-13T02:09:55;-12756.00;;;17.35;100.00
14594;BME280;7383;52.354;9.756;2023-10-13T02:12:22;-12755.56;;;17.33;100.00
14594;BME280;7383;52.354;9.756;2023-10-13T02:14:54;-12755.41;;;17.32;100.00
14594;BME280;7383;52.354;9.756;2023-10-13T02:17:20;-12755.41;;;17.32;100.00
14594;BME280;7383;52.354;9.756;2023-10-13T02:19:51;-12755.41;;;17.32;100.00
14594;BME280;7383;52.354;9.756;2023-10-13T02:22:19;-12755.50;;;17.32;100.00
14594;BME280;7383;52.354;9.756;2023-10-13T02:24:52;-12755.75;;;17.34;100.00
14594;BME280;7383;52.354;9.756;2023-10-13T02:27:18;-12756.25;;;17.37;100.00
14594;BME280;7383;52.354;9.756;2023-10-13T02:29:50;-12756.44;;;17.38;100.00
14594;BME280;7383;52.354;9.756;2023-10-13T02:32:23;-12756.59;;;17.39;100.00
14594;BME280;7383;52.354;9.756;2023-10-13T02:34:49;-12756.59;;;17.39;100.00
14594;BME280;7383;52.354;9.756;2023-10-13T02:37:15;-12756.88;;;17.40;100.00
14594;BME280;7383;52.354;9.756;2023-10-13T02:39:44;-12757.22;;;17.42;100.00
14594;BME280;7383;52.354;9.756;2023-10-13T02:42:10;-12757.38;;;17.43;100.00
14594;BME280;7383;52.354;9.756;2023-10-13T02:44:49;-12757.47;;;17.44;95.56
14594;BME280;7383;52.354;9.756;2023-10-13T02:47:16;-12757.72;;;17.45;92.06
14594;BME280;7383;52.354;9.756;2023-10-13T02:49:44;-12757.91;;;17.46;90.19
14594;BME280;7383;52.354;9.756;2023-10-13T02:52:12;-12758.00;;;17.47;88.52
14594;BME280;7383;52.354;9.756;2023-10-13T02:54:40;-12758.00;;;17.47;86.51
14594;BME280;7383;52.354;9.756;2023-10-13T02:57:12;-12758.41;;;17.49;85.13
14594;BME280;7383;52.354;9.756;2023-10-13T02:59:42;-12758.59;;;17.50;84.13
14594;BME280;7383;52.354;9.756;2023-10-13T03:02:14;-12758.94;;;17.52;83.19
14594;BME280;7383;52.354;9.756;2023-10-13T03:04:49;-12759.47;;;17.55;82.27
14594;BME280;7383;52.354;9.756;2023-10-13T03:07:16;-12759.53;;;17.56;81.38
14594;BME280;7383;52.354;9.756;2023-10-13T03:09:48;-12759.63;;;17.56;80.58
14594;BME280;7383;52.354;9.756;2023-10-13T03:12:17;-12759.81;;;17.57;79.65
14594;BME280;7383;52.354;9.756;2023-10-13T03:14:43;-12760.06;;;17.59;78.73
14594;BME280;7383;52.354;9.756;2023-10-13T03:17:14;-12759.91;;;17.58;77.87
14594;BME280;7383;52.354;9.756;2023-10-13T03:19:42;-12759.97;;;17.58;77.04
14594;BME280;7383;52.354;9.756;2023-10-13T03:22:12;-12759.72;;;17.57;76.54
14594;BME280;7383;52.354;9.756;2023-10-13T03:24:41;-12760.16;;;17.59;76.15
14594;BME280;7383;52.354;9.756;2023-10-13T03:27:11;-12760.25;;;17.60;75.71
14594;BME280;7383;52.354;9.756;2023-10-13T03:29:39;-12760.50;;;17.61;75.24
14594;BME280;7383;52.354;9.756;2023-10-13T03:32:09;-12760.75;;;17.63;74.92
14594;BME280;7383;52.354;9.756;2023-10-13T03:34:39;-12760.59;;;17.62;74.55
14594;BME280;7383;52.354;9.756;2023-10-13T03:37:20;-12760.66;;;17.62;74.23
14594;BME280;7383;52.354;9.756;2023-10-13T03:40:03;-12760.59;;;17.62;73.57
14594;BME280;7383;52.354;9.756;2023-10-13T03:42:32;-12760.75;;;17.63;72.72
14594;BME280;7383;52.354;9.756;2023-10-13T03:44:58;-12760.66;;;17.62;72.47
14594;BME280;7383;52.354;9.756;2023-10-13T03:47:25;-12760.50;;;17.61;72.27
14594;BME280;7383;52.354;9.756;2023-10-13T03:49:54;-12760.59;;;17.62;71.27
14594;BME280;7383;52.354;9.756;2023-10-13T03:52:41;-12760.25;;;17.60;71.12
14594;BME280;7383;52.354;9.756;2023-10-13T03:55:08;-12760.06;;;17.59;70.94
14594;BME280;7383;52.354;9.756;2023-10-13T03:57:42;-12759.81;;;17.57;70.84
14594;BME280;7383;52.354;9.756;2023-10-13T04:00:12;-12760.16;;;17.59;70.76
14594;BME280;7383;52.354;9.756;2023-10-13T04:02:46;-12760.16;;;17.59;70.67
14594;BME280;7383;52.354;9.756;2023-10-13T04:05:20;-12760.16;;;17.59;70.47
14594;BME280;7383;52.354;9.756;2023-10-13T04:08:02;-12760.16;;;17.59;70.24
14594;BME280;7383;52.354;9.756;2023-10-13T04:10:57;-12760.16;;;17.59;70.11
14594;BME280;7383;52.354;9.756;2023-10-13T04:13:41;-12759.97;;;17.58;70.00
14594;BME280;7383;52.354;9.756;2023-10-13T04:16:40;-12760.25;;;17.60;69.93
14594;BME280;7383;52.354;9.756;2023-10-13T04:19:17;-12760.41;;;17.61;69.86
14594;BME280;7383;52.354;9.756;2023-10-13T04:21:51;-12760.50;;;17.61;69.80
14594;BME280;7383;52.354;9.756;2023-10-13T04:24:25;-12760.41;;;17.61;69.55
14594;BME280;7383;52.354;9.756;2023-10-13T04:27:10;-12760.41;;;17.61;69.47
14594;BME280;7383;52.354;9.756;2023-10-13T04:29:55;-12760.31;;;17.60;69.39
14594;BME280;7383;52.354;9.756;2023-10-13T04:32:35;-12760.59;;;17.62;69.34
14594;BME280;7383;52.354;9.756;2023-10-13T04:35:07;-12760.59;;;17.62;69.26
14594;BME280;7383;52.354;9.756;2023-10-13T04:37:44;-12760.66;;;17.62;69.12
14594;BME280;7383;52.354;9.756;2023-10-13T04:40:20;-12760.84;;;17.63;69.05
14594;BME280;7383;52.354;9.756;2023-10-13T04:42:50;-12760.66;;;17.62;68.98
14594;BME280;7383;52.354;9.756;2023-10-13T04:45:19;-12761.19;;;17.65;68.90
14594;BME280;7383;52.354;9.756;2023-10-13T04:48:05;-12761.34;;;17.66;68.68
14594;BME280;7383;52.354;9.756;2023-10-13T04:50:45;-12761.53;;;17.67;68.64
14594;BME280;7383;52.354;9.756;2023-10-13T04:53:15;-12761.88;;;17.69;68.59
14594;BME280;7383;52.354;9.756;2023-10-13T04:55:56;-12762.06;;;17.70;68.56
14594;BME280;7383;52.354;9.756;2023-10-13T04:58:39;-12762.47;;;17.73;68.52
14594;BME280;7383;52.354;9.756;2023-10-13T05:01:34;-12762.66;;;17.74;68.47
14594;BME280;7383;52.354;9.756;2023-10-13T05:04:46;-12762.75;;;17.75;68.43
14594;BME280;7383;52.354;9.756;2023-10-13T05:07:30;-12763.16;;;17.77;68.31
14594;BME280;7383;52.354;9.756;2023-10-13T05:10:15;-12762.81;;;17.75;68.24
14594;BME280;7383;52.354;9.756;2023-10-13T05:12:59;-12762.81;;;17.75;68.20
14594;BME280;7383;52.354;9.756;2023-10-13T05:15:44;-12763.00;;;17.76;68.18
14594;BME280;7383;52.354;9.756;2023-10-13T05:18:31;-12762.91;;;17.76;68.16
14594;BME280;7383;52.354;9.756;2023-10-13T05:21:16;-12762.56;;;17.74;68.14
14594;BME280;7383;52.354;9.756;2023-10-13T05:24:00;-12762.56;;;17.74;68.14
14594;BME280;7383;52.354;9.756;2023-10-13T05:26:45;-12762.81;;;17.75;68.12
14594;BME280;7383;52.354;9.756;2023-10-13T05:29:29;-12762.75;;;17.75;68.11
14594;BME280;7383;52.354;9.756;2023-10-13T05:32:13;-12763.00;;;17.76;68.10
14594;BME280;7383;52.354;9.756;2023-10-13T05:34:57;-12762.75;;;17.75;68.07
14594;BME280;7383;52.354;9.756;2023-10-13T05:37:41;-12763.00;;;17.76;68.05
14594;BME280;7383;52.354;9.756;2023-10-13T05:40:25;-12763.09;;;17.77;68.05
14594;BME280;7383;52.354;9.756;2023-10-13T05:43:10;-12763.16;;;17.77;68.05
14594;BME280;7383;52.354;9.756;2023-10-13T05:46:00;-12763.00;;;17.76;68.02
14594;BME280;7383;52.354;9.756;2023-10-13T05:49:07;-12763.34;;;17.78;68.02
14594;BME280;7383;52.354;9.756;2023-10-13T05:51:52;-12763.09;;;17.77;68.03
14594;BME280;7383;52.354;9.756;2023-10-13T05:54:32;-12763.09;;;17.77;68.02
14594;BME280;7383;52.354;9.756;2023-10-13T05:57:16;-12763.25;;;17.78;68.01
14594;BME280;7383;52.354;9.756;2023-10-13T06:00:02;-12763.53;;;17.79;68.01
14594;BME280;7383;52.354;9.756;2023-10-13T06:02:46;-12763.16;;;17.77;68.00
14594;BME280;7383;52.354;9.756;2023-10-13T06:05:30;-12763.69;;;17.80;68.00
14594;BME280;7383;52.354;9.756;2023-10-13T06:08:14;-12763.59;;;17.80;68.01
14594;BME280;7383;52.354;9.756;2023-10-13T06:11:02;-12763.25;;;17.78;68.01
14594;BME280;7383;52.354;9.756;2023-10-13T06:13:47;-12763.00;;;17.76;67.99
14594;BME280;7383;52.354;9.756;2023-10-13T06:16:32;-12763.00;;;17.76;67.99
14594;BME280;7383;52.354;9.756;2023-10-13T06:19:16;-12763.16;;;17.77;67.99
14594;BME280;7383;52.354;9.756;2023-10-13T06:22:00;-12763.25;;;17.78;68.00
14594;BME280;7383;52.354;9.756;2023-10-13T06:24:44;-12763.25;;;17.78;67.99
14594;BME280;7383;52.354;9.756;2023-10-13T06:27:29;-12763.34;;;17.78;67.99
14594;BME280;7383;52.354;9.756;2023-10-13T06:30:13;-12763.25;;;17.78;67.97
14594;BME280;7383;52.354;9.756;2023-10-13T06:32:41;-12763.00;;;17.76;67.97
14594;BME280;7383;52.354;9.756;2023-10-13T06:35:07;-12763.00;;;17.76;67.97
14594;BME280;7383;52.354;9.756;2023-10-13T06:37:43;-12763.25;;;17.78;67.95
14594;BME280;7383;52.354;9.756;2023-10-13T06:40:11;-12763.44;;;17.79;67.95
14594;BME280;7383;52.354;9.756;2023-10-13T06:42:47;-12763.88;;;17.81;67.95
14594;BME280;7383;52.354;9.756;2023-10-13T06:45:14;-12764.13;;;17.83;67.94
14594;BME280;7383;52.354;9.756;2023-10-13T06:47:44;-12764.03;;;17.82;67.94
14594;BME280;7383;52.354;9.756;2023-10-13T06:50:11;-12763.94;;;17.82;67.94
14594;BME280;7383;52.354;9.756;2023-10-13T06:52:45;-12764.13;;;17.83;67.93
14594;BME280;7383;52.354;9.756;2023-10-13T06:55:13;-12764.13;;;17.83;67.89
14594;BME280;7383;52.354;9.756;2023-10-13T06:57:42;-12764.13;;;17.83;67.91
14594;BME280;7383;52.354;9.756;2023-10-13T07:00:10;-12764.38;;;17.84;67.91
14594;BME280;7383;52.354;9.756;2023-10-13T07:02:46;-12764.13;;;17.83;67.88
14594;BME280;7383;52.354;9.756;2023-10-13T07:05:13;-12764.13;;;17.83;67.86
14594;BME280;7383;52.354;9.756;2023-10-13T07:07:40;-12764.28;;;17.84;67.87
14594;BME280;7383;52.354;9.756;2023-10-13T07:10:08;-12764.28;;;17.84;67.87
14594;BME280;7383;52.354;9.756;2023-10-13T07:12:35;-12764.81;;;17.87;67.85
14594;BME280;7383;52.354;9.756;2023-10-13T07:15:03;-12764.91;;;17.87;67.85
14594;BME280;7383;52.354;9.756;2023-10-13T07:17:31;-12764.97;;;17.88;67.84
14594;BME280;7383;52.354;9.756;2023-10-13T07:20:06;-12765.25;;;17.89;67.84
14594;BME280;7383;52.354;9.756;2023-10-13T07:22:40;-12765.16;;;17.89;67.83
14594;BME280;7383;52.354;9.756;2023-10-13T07:25:20;-12765.25;;;17.89;67.82
14594;BME280;7383;52.354;9.756;2023-10-13T07:27:51;-12765.34;;;17.90;67.81
14594;BME280;7383;52.354;9.756;2023-10-13T07:30:19;-12765.50;;;17.91;67.80
14594;BME280;7383;52.354;9.756;2023-10-13T07:32:51;-12765.75;;;17.92;67.81
14594;BME280;7383;52.354;9.756;2023-10-13T07:35:20;-12765.34;;;17.90;67.79
14594;BME280;7383;52.354;9.756;2023-10-13T07:37:51;-12765.50;;;17.91;67.77
14594;BME280;7383;52.354;9.756;2023-10-13T07:40:19;-12766.03;;;17.94;67.77
14594;BME280;7383;52.354;9.756;2023-10-13T07:43:05;-12766.09;;;17.94;67.76
14594;BME280;7383;52.354;9.756;2023-10-13T07:45:36;-12766.09;;;17.94;67.76
14594;BME280;7383;52.354;9.756;2023-10-13T07:48:03;-12766.63;;;17.97;67.75
14594;BME280;7383;52.354;9.756;2023-10-13T07:50:38;-12766.53;;;17.97;67.73
14594;BME280;7383;52.354;9.756;2023-10-13T07:53:06;-12766.88;;;17.99;67.74
14594;BME280;7383;52.354;9.756;2023-10-13T07:55:47;-12767.22;;;18.01;67.73
14594;BME280;7383;52.354;9.756;2023-10-13T07:58:19;-12767.41;;;18.02;67.72
14594;BME280;7383;52.354;9.756;2023-10-13T08:00:50;-12767.31;;;18.01;67.71
14594;BME280;7383;52.354;9.756;2023-10-13T08:03:20;-12767.22;;;18.01;67.70
14594;BME280;7383;52.354;9.756;2023-10-13T08:06:01;-12767.16;;;18.00;67.69
14594;BME280;7383;52.354;9.756;2023-10-13T08:08:32;-12767.66;;;18.03;67.68
14594;BME280;7383;52.354;9.756;2023-10-13T08:11:03;-12768.00;;;18.05;67.68
14594;BME280;7383;52.354;9.756;2023-10-13T08:13:37;-12768.34;;;18.07;67.65
14594;BME280;7383;52.354;9.756;2023-10-13T08:16:04;-12769.22;;;18.12;67.66
14594;BME280;7383;52.354;9.756;2023-10-13T08:18:33;-12769.72;;;18.15;67.66
14594;BME280;7383;52.354;9.756;2023-10-13T08:21:03;-12770.06;;;18.17;67.67
14594;BME280;7383;52.354;9.756;2023-10-13T08:23:31;-12770.75;;;18.22;67.64
14594;BME280;7383;52.354;9.756;2023-10-13T08:26:24;-12771.88;;;18.28;67.65
14594;BME280;7383;52.354;9.756;2023-10-13T08:29:16;-12772.50;;;18.32;67.63
14594;BME280;7383;52.354;9.756;2023-10-13T08:32:00;-12772.91;;;18.34;67.62
14594;BME280;7383;52.354;9.756;2023-10-13T08:35:00;-12773.34;;;18.37;67.62
14594;BME280;7383;52.354;9.756;2023-10-13T08:37:48;-12773.97;;;18.40;67.60
14594;BME280;7383;52.354;9.756;2023-10-13T08:40:27;-12774.56;;;18.44;67.59
14594;BME280;7383;52.354;9.756;2023-10-13T08:43:32;-12774.81;;;18.45;67.57
14594;BME280;7383;52.354;9.756;2023-10-13T08:46:08;-12775.41;;;18.49;67.57
14594;BME280;7383;52.354;9.756;2023-10-13T08:48:50;-12776.19;;;18.53;67.57
14594;BME280;7383;52.354;9.756;2023-10-13T08:51:17;-12777.31;;;18.60;67.56
14594;BME280;7383;52.354;9.756;2023-10-13T08:54:04;-12778.34;;;18.66;67.55
14594;BME280;7383;52.354;9.756;2023-10-13T08:56:44;-12778.59;;;18.67;67.54
14594;BME280;7383;52.354;9.756;2023-10-13T08:59:20;-12779.03;;;18.70;67.54
14594;BME280;7383;52.354;9.756;2023-10-13T09:01:50;-12779.66;;;18.74;67.52
14594;BME280;7383;52.354;9.756;2023-10-13T09:04:42;-12779.91;;;18.75;67.54
14594;BME280;7383;52.354;9.756;2023-10-13T09:07:10;-12780.25;;;18.77;67.52
14594;BME280;7383;52.354;9.756;2023-10-13T09:09:48;-12780.41;;;18.78;67.51
14594;BME280;7383;52.354;9.756;2023-10-13T09:12:25;-12780.59;;;18.79;67.50
14594;BME280;7383;52.354;9.756;2023-10-13T09:15:03;-12780.59;;;18.79;67.50
14594;BME280;7383;52.354;9.756;2023-10-13T09:17:40;-12781.09;;;18.82;67.50
14594;BME280;7383;52.354;9.756;2023-10-13T09:20:12;-12782.13;;;18.88;67.49
14594;BME280;7383;52.354;9.756;2023-10-13T09:22:57;-12783.00;;;18.93;67.49
14594;BME280;7383;52.354;9.756;2023-10-13T09:25:35;-3964.00;;;18.96;67.49
14594;BME280;7383;52.354;9.756;2023-10-13T09:28:03;-3502.47;;;18.98;67.48
14594;BME280;7383;52.354;9.756;2023-10-13T09:30:42;-2764.34;;;19.02;67.48
14594;BME280;7383;52.354;9.756;2023-10-13T09:33:08;-2056.44;;;19.05;67.47
14594;BME280;7383;52.354;9.756;2023-10-13T09:35:35;-1528.53;;;19.11;67.47
14594;BME280;7383;52.354;9.756;2023-10-13T09:38:02;-919.22;;;19.15;67.48
14594;BME280;7383;52.354;9.756;2023-10-13T09:40:30;-241.16;;;19.20;67.46
14594;BME280;7383;52.354;9.756;2023-10-13T09:43:01;665.72;;;19.25;67.47
14594;BME280;7383;52.354;9.756;2023-10-13T09:45:34;1458.63;;;19.29;67.48
14594;BME280;7383;52.354;9.756;2023-10-13T09:48:09;1901.00;;;19.33;67.49
14594;BME280;7383;52.354;9.756;2023-10-13T09:50:44;2653.66;;;19.37;67.49
14594;BME280;7383;52.354;9.756;2023-10-13T09:53:11;2834.31;;;19.39;67.49
14594;BME280;7383;52.354;9.756;2023-10-13T09:55:42;3238.84;;;19.43;67.46
14594;BME280;7383;52.354;9.756;2023-10-13T09:58:12;3585.16;;;19.48;67.48
14594;BME280;7383;52.354;9.756;2023-10-13T10:00:44;3888.22;;;19.52;67.48
14594;BME280;7383;52.354;9.756;2023-10-13T10:03:12;4056.47;;;19.56;67.50
14594;BME280;7383;52.354;9.756;2023-10-13T10:05:56;4408.25;;;19.63;67.47
14594;BME280;7383;52.354;9.756;2023-10-13T10:08:29;4818.44;;;19.68;67.48
14594;BME280;7383;52.354;9.756;2023-10-13T10:14:33;5909.22;;;19.79;67.49
14594;BME280;7383;52.354;9.756;2023-10-13T10:17:06;6121.22;;;19.84;67.49
14594;BME280;7383;52.354;9.756;2023-10-13T10:19:46;6356.19;;;19.89;67.51
14594;BME280;7383;52.354;9.756;2023-10-13T10:22:13;6430.19;;;19.90;67.49
14594;BME280;7383;52.354;9.756;2023-10-13T10:24:56;6687.53;;;19.91;67.49
14594;BME280;7383;52.354;9.756;2023-10-13T10:27:28;6845.97;;;19.95;67.51
14594;BME280;7383;52.354;9.756;2023-10-13T10:29:57;6810.97;;;19.99;67.52
14594;BME280;7383;52.354;9.756;2023-10-13T10:32:35;6949.50;;;20.06;67.51
14594;BME280;7383;52.354;9.756;2023-10-13T10:35:06;7093.31;;;20.13;67.52
14594;BME280;7383;52.354;9.756;2023-10-13T10:37:34;7318.63;;;20.21;67.52
14594;BME280;7383;52.354;9.756;2023-10-13T10:40:01;7814.41;;;20.29;67.54
14594;BME280;7383;52.354;9.756;2023-10-13T10:42:34;8297.25;;;20.35;67.53
14594;BME280;7383;52.354;9.756;2023-10-13T10:45:07;8567.88;;;20.37;67.53
14594;BME280;7383;52.354;9.756;2023-10-13T10:47:36;9012.72;;;20.43;67.54
14594;BME280;7383;52.354;9.756;2023-10-13T10:50:04;9120.94;;;20.49;67.54
14594;BME280;7383;52.354;9.756;2023-10-13T10:52:44;9288.63;;;20.59;67.54
14594;BME280;7383;52.354;9.756;2023-10-13T10:55:12;9259.03;;;20.65;67.55
14594;BME280;7383;52.354;9.756;2023-10-13T10:57:42;9009.53;;;20.68;67.57
14594;BME280;7383;52.354;9.756;2023-10-13T11:00:19;9400.81;;;20.72;67.57
14594;BME280;7383;52.354;9.756;2023-10-13T11:02:53;9323.09;;;20.80;67.58
14594;BME280;7383;52.354;9.756;2023-10-13T11:05:20;9518.91;;;20.89;67.60
14594;BME280;7383;52.354;9.756;2023-10-13T11:07:47;9456.31;;;20.96;67.61
14594;BME280;7383;52.354;9.756;2023-10-13T11:10:16;9288.69;;;21.00;67.63
14594;BME280;7383;52.354;9.756;2023-10-13T11:12:55;9600.31;;;21.15;67.67
14594;BME280;7383;52.354;9.756;2023-10-13T11:15:42;9175.25;;;21.22;67.68
14594;BME280;7383;52.354;9.756;2023-10-13T11:18:10;8415.13;;;21.27;67.72
14594;BME280;7383;52.354;9.756;2023-10-13T11:20:43;7941.41;;;21.35;67.74
14594;BME280;7383;52.354;9.756;2023-10-13T11:23:11;7722.03;;;21.52;67.78
14594;BME280;7383;52.354;9.756;2023-10-13T11:25:38;6695.81;;;21.73;67.82
14594;BME280;7383;52.354;9.756;2023-10-13T11:28:11;5999.53;;;21.99;67.85
14594;BME280;7383;52.354;9.756;2023-10-13T11:30:44;3713.59;;;22.27;67.92
14594;BME280;7383;52.354;9.756;2023-10-13T11:33:15;2902.44;;;23.01;68.01
14594;BME280;7383;52.354;9.756;2023-10-13T11:35:44;-2193.00;;;23.58;68.11
14594;BME280;7383;52.354;9.756;2023-10-13T11:38:31;-8271.91;;;23.87;68.21
14594;BME280;7383;52.354;9.756;2023-10-13T11:41:09;-12606.38;;;24.28;68.39
14594;BME280;7383;52.354;9.756;2023-10-13T11:43:41;-12865.69;;;23.80;68.62
14594;BME280;7383;52.354;9.756;2023-10-13T11:46:29;-12859.38;;;23.43;69.13
14594;BME280;7383;52.354;9.756;2023-10-13T11:49:13;-12852.78;;;23.04;69.79
14594;BME280;7383;52.354;9.756;2023-10-13T11:51:56;-12848.00;;;22.76;70.91
14594;BME280;7383;52.354;9.756;2023-10-13T11:54:33;-12843.47;;;22.49;72.03
14594;BME280;7383;52.354;9.756;2023-10-13T11:57:01;-12841.75;;;22.39;73.20
14594;BME280;7383;52.354;9.756;2023-10-13T11:59:28;-12839.94;;;22.28;74.43
14594;BME280;7383;52.354;9.756;2023-10-13T12:01:56;-12838.66;;;22.21;75.88
14594;BME280;7383;52.354;9.756;2023-10-13T12:04:40;-12837.63;;;22.15;77.32
14594;BME280;7383;52.354;9.756;2023-10-13T12:07:09;-12838.84;;;22.22;79.11
14594;BME280;7383;52.354;9.756;2023-10-13T12:09:46;-12839.19;;;22.24;81.33
14594;BME280;7383;52.354;9.756;2023-10-13T12:12:29;-12840.53;;;22.32;83.75
14594;BME280;7383;52.354;9.756;2023-10-13T12:14:56;-12842.00;;;22.40;85.98
14594;BME280;7383;52.354;9.756;2023-10-13T12:17:26;-12408.88;;;22.64;90.65
14594;BME280;7383;52.354;9.756;2023-10-13T12:19:57;-11935.38;;;22.97;93.45
14594;BME280;7383;52.354;9.756;2023-10-13T12:22:24;-11568.66;;;22.97;98.71
14594;BME280;7383;52.354;9.756;2023-10-13T12:24:54;-10875.22;;;23.49;100.00
14594;BME280;7383;52.354;9.756;2023-10-13T12:27:21;-10202.28;;;24.13;100.00
14594;BME280;7383;52.354;9.756;2023-10-13T12:29:53;-8046.81;;;26.07;100.00
14594;BME280;7383;52.354;9.756;2023-10-13T12:32:22;-8334.59;;;26.97;100.00
14594;BME280;7383;52.354;9.756;2023-10-13T12:34:52;-6708.03;;;27.42;100.00
14594;BME280;7383;52.354;9.756;2023-10-13T12:37:42;-5378.31;;;26.59;100.00
14594;BME280;7383;52.354;9.756;2023-10-13T12:40:30;-3031.00;;;25.62;100.00
14594;BME280;7383;52.354;9.756;2023-10-13T12:43:14;-2851.09;;;25.04;100.00
14594;BME280;7383;52.354;9.756;2023-10-13T12:45:58;-1977.56;;;24.87;100.00
14594;BME280;7383;52.354;9.756;2023-10-13T12:48:42;-2441.19;;;24.89;100.00
14594;BME280;7383;52.354;9.756;2023-10-13T12:51:51;-701.91;;;24.80;100.00
14594;BME280;7383;52.354;9.756;2023-10-13T12:54:18;-614.84;;;24.78;100.00
14594;BME280;7383;52.354;9.756;2023-10-13T12:56:52;-341.28;;;24.60;100.00
14594;BME280;7383;52.354;9.756;2023-10-13T12:59:22;-257.25;;;24.45;100.00
14594;BME280;7383;52.354;9.756;2023-10-13T13:01:52;3111.00;;;24.35;100.00
14594;BME280;7383;52.354;9.756;2023-10-13T13:04:19;646.84;;;24.44;100.00
14594;BME280;7383;52.354;9.756;2023-10-13T13:06:46;-343.84;;;24.60;100.00
14594;BME280;7383;52.354;9.756;2023-10-13T13:09:14;1492.34;;;24.88;100.00
14594;BME280;7383;52.354;9.756;2023-10-13T13:11:41;57.97;;;25.17;100.00
14594;BME280;7383;52.354;9.756;2023-10-13T13:14:08;3420.94;;;25.17;100.00
14594;BME280;7383;52.354;9.756;2023-10-13T13:16:36;-1582.69;;;25.19;100.00
14594;BME280;7383;52.354;9.756;2023-10-13T13:19:05;-3030.50;;;25.14;100.00
14594;BME280;7383;52.354;9.756;2023-10-13T13:21:36;-3320.03;;;25.17;100.00
14594;BME280;7383;52.354;9.756;2023-10-13T13:24:04;-3210.09;;;25.34;100.00
14594;BME280;7383;52.354;9.756;2023-10-13T13:26:37;-2895.16;;;25.67;100.00
14594;BME280;7383;52.354;9.756;2023-10-13T13:29:06;-3756.81;;;25.75;100.00
14594;BME280;7383;52.354;9.756;2023-10-13T13:31:35;-4999.38;;;25.57;100.00
14594;BME280;7383;52.354;9.756;2023-10-13T13:34:06;-6548.94;;;25.14;100.00
14594;BME280;7383;52.354;9.756;2023-10-13T13:36:34;-7781.91;;;24.78;100.00
14594;BME280;7383;52.354;9.756;2023-10-13T13:39:01;-8464.59;;;24.52;100.00
14594;BME280;7383;52.354;9.756;2023-10-13T13:41:28;-8833.78;;;24.38;100.00
14594;BME280;7383;52.354;9.756;2023-10-13T13:43:59;-8959.41;;;24.42;100.00